sensor_id;sensor_type;location;lat;lon;timestamp;P1;durP1;ratioP1;P2;durP2;ratioP2
54412;SDS011;41533;51.390;0.074;2024-01-16T00:00:53;4.80;;;2.33;;
54412;SDS011;41533;51.390;0.074;2024-01-16T00:03:20;5.00;;;3.03;;
54412;SDS011;41533;51.390;0.074;2024-01-16T00:05:48;3.17;;;2.08;;
54412;SDS011;41533;51.390;0.074;2024-01-16T00:08:16;5.53;;;2.50;;
54412;SDS011;41533;51.390;0.074;2024-01-16T00:10:43;5.85;;;2.13;;
54412;SDS011;41533;51.390;0.074;2024-01-16T00:13:10;7.32;;;2.78;;
54412;SDS011;41533;51.390;0.074;2024-01-16T00:15:38;4.43;;;2.15;;
54412;SDS011;41533;51.390;0.074;2024-01-16T00:18:08;6.20;;;2.28;;
54412;SDS011;41533;51.390;0.074;2024-01-16T00:20:36;6.40;;;2.10;;
54412;SDS011;41533;51.390;0.074;2024-01-16T00:23:03;5.95;;;2.17;;
54412;SDS011;41533;51.390;0.074;2024-01-16T00:25:31;3.80;;;2.03;;
54412;SDS011;41533;51.390;0.074;2024-01-16T00:27:58;2.47;;;1.58;;
54412;SDS011;41533;51.390;0.074;2024-01-16T00:30:25;2.97;;;2.15;;
54412;SDS011;41533;51.390;0.074;2024-01-16T00:32:53;3.78;;;2.05;;
54412;SDS011;41533;51.390;0.074;2024-01-16T00:35:20;4.15;;;1.92;;
54412;SDS011;41533;51.390;0.074;2024-01-16T00:37:47;2.22;;;1.50;;
54412;SDS011;41533;51.390;0.074;2024-01-16T00:40:15;3.00;;;1.70;;
54412;SDS011;41533;51.390;0.074;2024-01-16T00:42:42;3.05;;;1.63;;
54412;SDS011;41533;51.390;0.074;2024-01-16T00:45:09;2.25;;;1.35;;
54412;SDS011;41533;51.390;0.074;2024-01-16T00:47:36;2.97;;;1.70;;
54412;SDS011;41533;51.390;0.074;2024-01-16T00:50:04;4.15;;;1.98;;
54412;SDS011;41533;51.390;0.074;2024-01-16T00:52:32;5.15;;;2.28;;
54412;SDS011;41533;51.390;0.074;2024-01-16T00:54:59;3.15;;;1.60;;
54412;SDS011;41533;51.390;0.074;2024-01-16T00:57:26;3.80;;;2.42;;
54412;SDS011;41533;51.390;0.074;2024-01-16T00:59:53;3.53;;;1.88;;
54412;SDS011;41533;51.390;0.074;2024-01-16T01:02:21;3.97;;;1.58;;
54412;SDS011;41533;51.390;0.074;2024-01-16T01:04:48;2.38;;;1.55;;
54412;SDS011;41533;51.390;0.074;2024-01-16T01:07:15;3.13;;;1.65;;
54412;SDS011;41533;51.390;0.074;2024-01-16T01:09:43;3.55;;;1.63;;
54412;SDS011;41533;51.390;0.074;2024-01-16T01:12:10;2.10;;;1.40;;
54412;SDS011;41533;51.390;0.074;2024-01-16T01:14:37;3.83;;;1.67;;
54412;SDS011;41533;51.390;0.074;2024-01-16T01:17:04;3.40;;;1.45;;
54412;SDS011;41533;51.390;0.074;2024-01-16T01:19:32;5.90;;;1.70;;
54412;SDS011;41533;51.390;0.074;2024-01-16T01:21:59;3.55;;;1.73;;
54412;SDS011;41533;51.390;0.074;2024-01-16T01:24:26;3.40;;;1.48;;
54412;SDS011;41533;51.390;0.074;2024-01-16T01:26:54;2.25;;;1.50;;
54412;SDS011;41533;51.390;0.074;2024-01-16T01:29:21;4.50;;;1.80;;
54412;SDS011;41533;51.390;0.074;2024-01-16T01:31:48;4.28;;;1.48;;
54412;SDS011;41533;51.390;0.074;2024-01-16T01:34:16;2.35;;;1.40;;
54412;SDS011;41533;51.390;0.074;2024-01-16T01:36:43;3.53;;;1.48;;
54412;SDS011;41533;51.390;0.074;2024-01-16T01:39:11;5.45;;;1.77;;
54412;SDS011;41533;51.390;0.074;2024-01-16T01:41:38;4.13;;;1.77;;
54412;SDS011;41533;51.390;0.074;2024-01-16T01:44:06;4.40;;;1.30;;
54412;SDS011;41533;51.390;0.074;2024-01-16T01:46:34;3.05;;;1.55;;
54412;SDS011;41533;51.390;0.074;2024-01-16T01:49:02;2.58;;;1.42;;
54412;SDS011;41533;51.390;0.074;2024-01-16T01:51:29;3.13;;;1.70;;
54412;SDS011;41533;51.390;0.074;2024-01-16T01:53:57;3.85;;;1.80;;
54412;SDS011;41533;51.390;0.074;2024-01-16T01:56:25;2.30;;;1.63;;
54412;SDS011;41533;51.390;0.074;2024-01-16T01:58:56;1.77;;;1.42;;
54412;SDS011;41533;51.390;0.074;2024-01-16T02:01:24;3.70;;;1.50;;
54412;SDS011;41533;51.390;0.074;2024-01-16T02:03:52;2.72;;;1.60;;
54412;SDS011;41533;51.390;0.074;2024-01-16T02:06:19;4.22;;;1.52;;
54412;SDS011;41533;51.390;0.074;2024-01-16T02:08:46;4.00;;;1.60;;
54412;SDS011;41533;51.390;0.074;2024-01-16T02:11:14;2.50;;;1.55;;
54412;SDS011;41533;51.390;0.074;2024-01-16T02:13:42;3.33;;;1.65;;
54412;SDS011;41533;51.390;0.074;2024-01-16T02:16:19;3.08;;;1.60;;
54412;SDS011;41533;51.390;0.074;2024-01-16T02:18:47;2.50;;;1.65;;
54412;SDS011;41533;51.390;0.074;2024-01-16T02:21:20;2.97;;;1.50;;
54412;SDS011;41533;51.390;0.074;2024-01-16T02:26:15;2.67;;;1.48;;
54412;SDS011;41533;51.390;0.074;2024-01-16T02:28:46;6.00;;;1.80;;
54412;SDS011;41533;51.390;0.074;2024-01-16T02:31:13;2.95;;;1.70;;
54412;SDS011;41533;51.390;0.074;2024-01-16T02:33:40;3.40;;;1.50;;
54412;SDS011;41533;51.390;0.074;2024-01-16T02:36:08;2.00;;;1.40;;
54412;SDS011;41533;51.390;0.074;2024-01-16T02:38:35;3.53;;;1.80;;
54412;SDS011;41533;51.390;0.074;2024-01-16T02:41:03;1.98;;;1.10;;
54412;SDS011;41533;51.390;0.074;2024-01-16T02:43:30;4.60;;;1.35;;
54412;SDS011;41533;51.390;0.074;2024-01-16T02:45:57;2.95;;;1.42;;
54412;SDS011;41533;51.390;0.074;2024-01-16T02:48:25;2.17;;;1.13;;
54412;SDS011;41533;51.390;0.074;2024-01-16T02:50:52;3.33;;;1.45;;
54412;SDS011;41533;51.390;0.074;2024-01-16T02:53:20;3.47;;;1.65;;
54412;SDS011;41533;51.390;0.074;2024-01-16T02:55:47;2.33;;;1.00;;
54412;SDS011;41533;51.390;0.074;2024-01-16T02:58:14;2.03;;;1.27;;
54412;SDS011;41533;51.390;0.074;2024-01-16T03:00:41;4.25;;;1.75;;
54412;SDS011;41533;51.390;0.074;2024-01-16T03:03:09;1.90;;;1.20;;
54412;SDS011;41533;51.390;0.074;2024-01-16T03:05:37;2.08;;;1.42;;
54412;SDS011;41533;51.390;0.074;2024-01-16T03:08:04;2.10;;;1.25;;
54412;SDS011;41533;51.390;0.074;2024-01-16T03:10:32;1.80;;;1.25;;
54412;SDS011;41533;51.390;0.074;2024-01-16T03:12:59;1.45;;;1.27;;
54412;SDS011;41533;51.390;0.074;2024-01-16T03:15:27;1.50;;;1.10;;
54412;SDS011;41533;51.390;0.074;2024-01-16T03:17:54;2.53;;;1.50;;
54412;SDS011;41533;51.390;0.074;2024-01-16T03:20:21;3.20;;;1.35;;
54412;SDS011;41533;51.390;0.074;2024-01-16T03:22:50;2.83;;;1.38;;
54412;SDS011;41533;51.390;0.074;2024-01-16T03:25:18;1.77;;;1.33;;
54412;SDS011;41533;51.390;0.074;2024-01-16T03:27:45;1.48;;;1.35;;
54412;SDS011;41533;51.390;0.074;2024-01-16T03:30:12;4.80;;;2.10;;
54412;SDS011;41533;51.390;0.074;2024-01-16T03:32:40;3.60;;;1.60;;
54412;SDS011;41533;51.390;0.074;2024-01-16T03:35:07;4.50;;;1.70;;
54412;SDS011;41533;51.390;0.074;2024-01-16T03:37:34;1.98;;;1.20;;
54412;SDS011;41533;51.390;0.074;2024-01-16T03:40:02;2.70;;;2.05;;
54412;SDS011;41533;51.390;0.074;2024-01-16T03:42:29;3.05;;;1.95;;
54412;SDS011;41533;51.390;0.074;2024-01-16T03:44:56;4.85;;;1.38;;
54412;SDS011;41533;51.390;0.074;2024-01-16T03:47:24;1.60;;;1.50;;
54412;SDS011;41533;51.390;0.074;2024-01-16T03:49:51;1.85;;;1.25;;
54412;SDS011;41533;51.390;0.074;2024-01-16T03:52:19;2.33;;;1.17;;
54412;SDS011;41533;51.390;0.074;2024-01-16T03:54:47;2.80;;;1.60;;
54412;SDS011;41533;51.390;0.074;2024-01-16T03:57:15;2.08;;;1.38;;
54412;SDS011;41533;51.390;0.074;2024-01-16T03:59:43;3.15;;;1.40;;
54412;SDS011;41533;51.390;0.074;2024-01-16T04:02:10;3.10;;;1.50;;
54412;SDS011;41533;51.390;0.074;2024-01-16T04:04:37;0.90;;;0.90;;
54412;SDS011;41533;51.390;0.074;2024-01-16T04:07:04;2.65;;;1.52;;
54412;SDS011;41533;51.390;0.074;2024-01-16T04:09:32;2.33;;;1.27;;
54412;SDS011;41533;51.390;0.074;2024-01-16T04:11:59;2.08;;;1.17;;
54412;SDS011;41533;51.390;0.074;2024-01-16T04:14:27;2.65;;;1.20;;
54412;SDS011;41533;51.390;0.074;2024-01-16T04:16:54;1.15;;;1.05;;
54412;SDS011;41533;51.390;0.074;2024-01-16T04:19:21;1.63;;;1.20;;
54412;SDS011;41533;51.390;0.074;2024-01-16T04:21:49;3.67;;;1.58;;
54412;SDS011;41533;51.390;0.074;2024-01-16T04:24:16;6.22;;;1.40;;
54412;SDS011;41533;51.390;0.074;2024-01-16T04:26:43;3.17;;;1.33;;
54412;SDS011;41533;51.390;0.074;2024-01-16T04:29:11;2.28;;;1.40;;
54412;SDS011;41533;51.390;0.074;2024-01-16T04:31:39;2.15;;;1.27;;
54412;SDS011;41533;51.390;0.074;2024-01-16T04:34:09;3.05;;;1.85;;
54412;SDS011;41533;51.390;0.074;2024-01-16T04:36:37;1.65;;;1.40;;
54412;SDS011;41533;51.390;0.074;2024-01-16T04:39:04;2.70;;;1.58;;
54412;SDS011;41533;51.390;0.074;2024-01-16T04:41:31;2.30;;;1.35;;
54412;SDS011;41533;51.390;0.074;2024-01-16T04:43:59;1.20;;;1.10;;
54412;SDS011;41533;51.390;0.074;2024-01-16T04:46:26;3.38;;;1.42;;
54412;SDS011;41533;51.390;0.074;2024-01-16T04:48:54;1.50;;;1.08;;
54412;SDS011;41533;51.390;0.074;2024-01-16T04:51:22;1.27;;;0.73;;
54412;SDS011;41533;51.390;0.074;2024-01-16T04:53:49;0.90;;;0.88;;
54412;SDS011;41533;51.390;0.074;2024-01-16T04:56:16;2.85;;;1.42;;
54412;SDS011;41533;51.390;0.074;2024-01-16T04:58:44;3.33;;;1.10;;
54412;SDS011;41533;51.390;0.074;2024-01-16T05:01:11;4.00;;;1.15;;
54412;SDS011;41533;51.390;0.074;2024-01-16T05:03:39;2.00;;;1.10;;
54412;SDS011;41533;51.390;0.074;2024-01-16T05:06:13;1.63;;;1.05;;
54412;SDS011;41533;51.390;0.074;2024-01-16T05:08:42;2.05;;;1.15;;
54412;SDS011;41533;51.390;0.074;2024-01-16T05:11:09;2.80;;;1.10;;
54412;SDS011;41533;51.390;0.074;2024-01-16T05:13:36;2.15;;;0.98;;
54412;SDS011;41533;51.390;0.074;2024-01-16T05:16:04;5.35;;;1.02;;
54412;SDS011;41533;51.390;0.074;2024-01-16T05:18:31;2.95;;;1.08;;
54412;SDS011;41533;51.390;0.074;2024-01-16T05:21:00;2.08;;;1.08;;
54412;SDS011;41533;51.390;0.074;2024-01-16T05:23:29;1.75;;;1.17;;
54412;SDS011;41533;51.390;0.074;2024-01-16T05:25:56;1.73;;;1.00;;
54412;SDS011;41533;51.390;0.074;2024-01-16T05:28:24;0.80;;;0.80;;
54412;SDS011;41533;51.390;0.074;2024-01-16T05:30:51;0.60;;;0.60;;
54412;SDS011;41533;51.390;0.074;2024-01-16T05:33:18;2.40;;;1.10;;
54412;SDS011;41533;51.390;0.074;2024-01-16T05:35:46;2.90;;;1.13;;
54412;SDS011;41533;51.390;0.074;2024-01-16T05:38:13;2.83;;;1.08;;
54412;SDS011;41533;51.390;0.074;2024-01-16T05:40:40;1.38;;;0.82;;
54412;SDS011;41533;51.390;0.074;2024-01-16T05:43:08;1.63;;;0.88;;
54412;SDS011;41533;51.390;0.074;2024-01-16T05:45:35;1.60;;;1.02;;
54412;SDS011;41533;51.390;0.074;2024-01-16T05:48:03;1.80;;;1.00;;
54412;SDS011;41533;51.390;0.074;2024-01-16T05:50:30;2.05;;;0.75;;
54412;SDS011;41533;51.390;0.074;2024-01-16T05:52:58;1.40;;;1.00;;
54412;SDS011;41533;51.390;0.074;2024-01-16T05:55:25;3.10;;;0.98;;
54412;SDS011;41533;51.390;0.074;2024-01-16T05:57:52;0.88;;;0.80;;
54412;SDS011;41533;51.390;0.074;2024-01-16T06:00:20;1.60;;;1.23;;
54412;SDS011;41533;51.390;0.074;2024-01-16T06:02:50;1.42;;;1.17;;
54412;SDS011;41533;51.390;0.074;2024-01-16T06:05:17;1.05;;;0.77;;
54412;SDS011;41533;51.390;0.074;2024-01-16T06:07:44;1.35;;;0.70;;
54412;SDS011;41533;51.390;0.074;2024-01-16T06:10:12;1.38;;;0.90;;
54412;SDS011;41533;51.390;0.074;2024-01-16T06:12:41;2.05;;;1.10;;
54412;SDS011;41533;51.390;0.074;2024-01-16T06:15:08;1.70;;;0.85;;
54412;SDS011;41533;51.390;0.074;2024-01-16T06:17:36;1.88;;;0.80;;
54412;SDS011;41533;51.390;0.074;2024-01-16T06:20:04;4.82;;;1.20;;
54412;SDS011;41533;51.390;0.074;2024-01-16T06:22:33;1.23;;;0.93;;
54412;SDS011;41533;51.390;0.074;2024-01-16T06:25:01;1.63;;;1.05;;
54412;SDS011;41533;51.390;0.074;2024-01-16T06:27:29;1.30;;;0.90;;
54412;SDS011;41533;51.390;0.074;2024-01-16T06:29:56;1.33;;;0.82;;
54412;SDS011;41533;51.390;0.074;2024-01-16T06:32:23;1.90;;;1.25;;
54412;SDS011;41533;51.390;0.074;2024-01-16T06:34:51;0.70;;;0.70;;
54412;SDS011;41533;51.390;0.074;2024-01-16T06:37:18;2.10;;;1.10;;
54412;SDS011;41533;51.390;0.074;2024-01-16T06:39:46;2.47;;;1.27;;
54412;SDS011;41533;51.390;0.074;2024-01-16T06:42:13;3.35;;;0.98;;
54412;SDS011;41533;51.390;0.074;2024-01-16T06:44:41;1.10;;;1.00;;
54412;SDS011;41533;51.390;0.074;2024-01-16T06:47:08;2.53;;;0.90;;
54412;SDS011;41533;51.390;0.074;2024-01-16T06:49:35;1.95;;;1.00;;
54412;SDS011;41533;51.390;0.074;2024-01-16T06:52:03;1.02;;;0.70;;
54412;SDS011;41533;51.390;0.074;2024-01-16T06:54:30;1.08;;;1.00;;
54412;SDS011;41533;51.390;0.074;2024-01-16T06:56:57;1.42;;;0.95;;
54412;SDS011;41533;51.390;0.074;2024-01-16T06:59:25;1.52;;;1.15;;
54412;SDS011;41533;51.390;0.074;2024-01-16T07:01:52;2.65;;;1.20;;
54412;SDS011;41533;51.390;0.074;2024-01-16T07:04:19;2.08;;;1.17;;
54412;SDS011;41533;51.390;0.074;2024-01-16T07:06:46;2.45;;;1.08;;
54412;SDS011;41533;51.390;0.074;2024-01-16T07:09:14;3.40;;;0.80;;
54412;SDS011;41533;51.390;0.074;2024-01-16T07:11:43;3.70;;;1.00;;
54412;SDS011;41533;51.390;0.074;2024-01-16T07:14:10;2.55;;;1.23;;
54412;SDS011;41533;51.390;0.074;2024-01-16T07:16:37;2.45;;;0.95;;
54412;SDS011;41533;51.390;0.074;2024-01-16T07:19:05;5.07;;;1.10;;
54412;SDS011;41533;51.390;0.074;2024-01-16T07:21:33;2.95;;;1.10;;
54412;SDS011;41533;51.390;0.074;2024-01-16T07:24:01;2.33;;;1.50;;
54412;SDS011;41533;51.390;0.074;2024-01-16T07:26:28;3.28;;;1.20;;
54412;SDS011;41533;51.390;0.074;2024-01-16T07:28:55;1.13;;;0.90;;
54412;SDS011;41533;51.390;0.074;2024-01-16T07:31:23;2.55;;;1.15;;
54412;SDS011;41533;51.390;0.074;2024-01-16T07:33:50;1.45;;;1.00;;
54412;SDS011;41533;51.390;0.074;2024-01-16T07:36:18;1.00;;;0.93;;
54412;SDS011;41533;51.390;0.074;2024-01-16T07:38:45;1.10;;;1.00;;
54412;SDS011;41533;51.390;0.074;2024-01-16T07:41:12;1.75;;;1.17;;
54412;SDS011;41533;51.390;0.074;2024-01-16T07:43:40;2.63;;;1.00;;
54412;SDS011;41533;51.390;0.074;2024-01-16T07:46:07;2.80;;;1.42;;
54412;SDS011;41533;51.390;0.074;2024-01-16T07:48:34;0.88;;;0.88;;
54412;SDS011;41533;51.390;0.074;2024-01-16T07:51:01;1.52;;;1.20;;
54412;SDS011;41533;51.390;0.074;2024-01-16T07:53:29;1.85;;;1.05;;
54412;SDS011;41533;51.390;0.074;2024-01-16T07:55:56;1.10;;;0.88;;
54412;SDS011;41533;51.390;0.074;2024-01-16T07:58:23;2.30;;;1.25;;
54412;SDS011;41533;51.390;0.074;2024-01-16T08:00:50;1.48;;;1.23;;
54412;SDS011;41533;51.390;0.074;2024-01-16T08:03:18;3.13;;;1.50;;
54412;SDS011;41533;51.390;0.074;2024-01-16T08:05:45;2.45;;;0.85;;
54412;SDS011;41533;51.390;0.074;2024-01-16T08:08:12;1.60;;;1.00;;
54412;SDS011;41533;51.390;0.074;2024-01-16T08:10:43;2.83;;;1.20;;
54412;SDS011;41533;51.390;0.074;2024-01-16T08:13:10;1.80;;;0.80;;
54412;SDS011;41533;51.390;0.074;2024-01-16T08:15:37;1.60;;;0.90;;
54412;SDS011;41533;51.390;0.074;2024-01-16T08:18:04;2.53;;;1.45;;
54412;SDS011;41533;51.390;0.074;2024-01-16T08:20:32;3.38;;;1.45;;
54412;SDS011;41533;51.390;0.074;2024-01-16T08:22:59;4.88;;;1.65;;
54412;SDS011;41533;51.390;0.074;2024-01-16T08:25:27;2.00;;;1.10;;
54412;SDS011;41533;51.390;0.074;2024-01-16T08:27:54;1.30;;;1.20;;
54412;SDS011;41533;51.390;0.074;2024-01-16T08:30:21;2.85;;;1.23;;
54412;SDS011;41533;51.390;0.074;2024-01-16T08:32:48;2.33;;;0.98;;
54412;SDS011;41533;51.390;0.074;2024-01-16T08:35:16;1.70;;;1.10;;
54412;SDS011;41533;51.390;0.074;2024-01-16T08:37:43;1.02;;;0.85;;
54412;SDS011;41533;51.390;0.074;2024-01-16T08:40:10;2.72;;;1.08;;
54412;SDS011;41533;51.390;0.074;2024-01-16T08:42:38;1.02;;;0.82;;
54412;SDS011;41533;51.390;0.074;2024-01-16T08:45:06;1.52;;;1.05;;
54412;SDS011;41533;51.390;0.074;2024-01-16T08:47:33;2.95;;;1.42;;
54412;SDS011;41533;51.390;0.074;2024-01-16T08:50:01;1.95;;;0.98;;
54412;SDS011;41533;51.390;0.074;2024-01-16T08:52:29;1.45;;;0.63;;
54412;SDS011;41533;51.390;0.074;2024-01-16T08:54:56;2.20;;;1.10;;
54412;SDS011;41533;51.390;0.074;2024-01-16T08:57:24;4.53;;;1.45;;
54412;SDS011;41533;51.390;0.074;2024-01-16T08:59:53;2.35;;;1.25;;
54412;SDS011;41533;51.390;0.074;2024-01-16T09:02:21;1.55;;;0.80;;
54412;SDS011;41533;51.390;0.074;2024-01-16T09:04:48;2.53;;;1.10;;
54412;SDS011;41533;51.390;0.074;2024-01-16T09:07:17;1.17;;;0.90;;
54412;SDS011;41533;51.390;0.074;2024-01-16T09:09:45;1.63;;;0.98;;
54412;SDS011;41533;51.390;0.074;2024-01-16T09:12:13;0.93;;;0.77;;
54412;SDS011;41533;51.390;0.074;2024-01-16T09:14:40;4.45;;;1.25;;
54412;SDS011;41533;51.390;0.074;2024-01-16T09:17:08;2.47;;;0.80;;
54412;SDS011;41533;51.390;0.074;2024-01-16T09:19:35;0.88;;;0.60;;
54412;SDS011;41533;51.390;0.074;2024-01-16T09:22:03;2.58;;;1.02;;
54412;SDS011;41533;51.390;0.074;2024-01-16T09:24:30;1.75;;;0.50;;
54412;SDS011;41533;51.390;0.074;2024-01-16T09:26:58;1.17;;;0.85;;
54412;SDS011;41533;51.390;0.074;2024-01-16T09:29:26;1.67;;;0.85;;
54412;SDS011;41533;51.390;0.074;2024-01-16T09:31:53;0.60;;;0.50;;
54412;SDS011;41533;51.390;0.074;2024-01-16T09:34:21;2.17;;;1.13;;
54412;SDS011;41533;51.390;0.074;2024-01-16T09:36:48;1.67;;;0.90;;
54412;SDS011;41533;51.390;0.074;2024-01-16T09:39:15;0.90;;;0.70;;
54412;SDS011;41533;51.390;0.074;2024-01-16T09:41:45;2.80;;;1.40;;
54412;SDS011;41533;51.390;0.074;2024-01-16T09:44:12;1.75;;;0.90;;
54412;SDS011;41533;51.390;0.074;2024-01-16T09:46:39;1.55;;;0.80;;
54412;SDS011;41533;51.390;0.074;2024-01-16T09:49:07;1.98;;;0.93;;
54412;SDS011;41533;51.390;0.074;2024-01-16T09:51:35;1.10;;;0.98;;
54412;SDS011;41533;51.390;0.074;2024-01-16T09:54:02;2.30;;;1.05;;
54412;SDS011;41533;51.390;0.074;2024-01-16T09:56:37;0.90;;;0.63;;
54412;SDS011;41533;51.390;0.074;2024-01-16T09:59:06;2.47;;;1.05;;
54412;SDS011;41533;51.390;0.074;2024-01-16T10:01:35;4.72;;;1.48;;
54412;SDS011;41533;51.390;0.074;2024-01-16T10:04:03;2.90;;;1.45;;
54412;SDS011;41533;51.390;0.074;2024-01-16T10:06:31;4.95;;;1.38;;
54412;SDS011;41533;51.390;0.074;2024-01-16T10:08:59;4.75;;;1.85;;
54412;SDS011;41533;51.390;0.074;2024-01-16T10:11:26;1.88;;;1.52;;
54412;SDS011;41533;51.390;0.074;2024-01-16T10:13:54;3.15;;;1.52;;
54412;SDS011;41533;51.390;0.074;2024-01-16T10:16:21;2.50;;;1.60;;
54412;SDS011;41533;51.390;0.074;2024-01-16T10:18:52;2.88;;;2.15;;
54412;SDS011;41533;51.390;0.074;2024-01-16T10:21:30;7.18;;;2.45;;
54412;SDS011;41533;51.390;0.074;2024-01-16T10:24:10;5.15;;;2.28;;
54412;SDS011;41533;51.390;0.074;2024-01-16T10:26:37;3.03;;;1.70;;
54412;SDS011;41533;51.390;0.074;2024-01-16T10:29:05;6.63;;;1.77;;
54412;SDS011;41533;51.390;0.074;2024-01-16T10:31:32;3.78;;;1.30;;
54412;SDS011;41533;51.390;0.074;2024-01-16T10:33:59;2.63;;;1.45;;
54412;SDS011;41533;51.390;0.074;2024-01-16T10:36:27;2.70;;;1.70;;
54412;SDS011;41533;51.390;0.074;2024-01-16T10:38:54;4.07;;;1.00;;
54412;SDS011;41533;51.390;0.074;2024-01-16T10:41:29;1.75;;;1.35;;
54412;SDS011;41533;51.390;0.074;2024-01-16T10:44:06;5.18;;;1.38;;
54412;SDS011;41533;51.390;0.074;2024-01-16T10:46:34;2.03;;;1.42;;
54412;SDS011;41533;51.390;0.074;2024-01-16T10:49:03;1.08;;;0.95;;
54412;SDS011;41533;51.390;0.074;2024-01-16T10:51:31;2.05;;;0.90;;
54412;SDS011;41533;51.390;0.074;2024-01-16T10:54:02;1.80;;;1.10;;
54412;SDS011;41533;51.390;0.074;2024-01-16T10:56:35;2.42;;;1.20;;
54412;SDS011;41533;51.390;0.074;2024-01-16T11:01:36;1.40;;;0.90;;
54412;SDS011;41533;51.390;0.074;2024-01-16T11:04:03;2.67;;;1.38;;
54412;SDS011;41533;51.390;0.074;2024-01-16T11:06:32;1.75;;;1.08;;
54412;SDS011;41533;51.390;0.074;2024-01-16T11:09:00;3.95;;;1.20;;
54412;SDS011;41533;51.390;0.074;2024-01-16T11:11:31;7.70;;;1.58;;
54412;SDS011;41533;51.390;0.074;2024-01-16T11:14:02;1.83;;;1.27;;
54412;SDS011;41533;51.390;0.074;2024-01-16T11:16:31;1.77;;;1.08;;
54412;SDS011;41533;51.390;0.074;2024-01-16T11:18:58;3.75;;;0.88;;
54412;SDS011;41533;51.390;0.074;2024-01-16T11:21:40;2.08;;;1.00;;
54412;SDS011;41533;51.390;0.074;2024-01-16T11:24:08;2.33;;;1.10;;
54412;SDS011;41533;51.390;0.074;2024-01-16T11:26:37;1.48;;;0.70;;
54412;SDS011;41533;51.390;0.074;2024-01-16T11:31:54;1.42;;;0.63;;
54412;SDS011;41533;51.390;0.074;2024-01-16T11:37:11;3.22;;;0.70;;
54412;SDS011;41533;51.390;0.074;2024-01-16T11:39:39;1.65;;;1.17;;
54412;SDS011;41533;51.390;0.074;2024-01-16T11:42:09;1.33;;;0.75;;
54412;SDS011;41533;51.390;0.074;2024-01-16T11:44:46;1.05;;;0.52;;
54412;SDS011;41533;51.390;0.074;2024-01-16T11:47:15;0.95;;;0.50;;
54412;SDS011;41533;51.390;0.074;2024-01-16T11:49:43;1.58;;;0.70;;
54412;SDS011;41533;51.390;0.074;2024-01-16T11:52:10;0.47;;;0.40;;
54412;SDS011;41533;51.390;0.074;2024-01-16T11:54:40;0.60;;;0.60;;
54412;SDS011;41533;51.390;0.074;2024-01-16T11:59:50;0.40;;;0.40;;
54412;SDS011;41533;51.390;0.074;2024-01-16T12:02:21;1.48;;;0.70;;
54412;SDS011;41533;51.390;0.074;2024-01-16T12:04:52;1.20;;;0.88;;
54412;SDS011;41533;51.390;0.074;2024-01-16T12:07:20;2.05;;;0.70;;
54412;SDS011;41533;51.390;0.074;2024-01-16T12:09:47;1.88;;;0.60;;
54412;SDS011;41533;51.390;0.074;2024-01-16T12:12:15;1.67;;;0.77;;
54412;SDS011;41533;51.390;0.074;2024-01-16T12:14:54;1.05;;;0.65;;
54412;SDS011;41533;51.390;0.074;2024-01-16T12:17:22;0.85;;;0.85;;
54412;SDS011;41533;51.390;0.074;2024-01-16T12:19:49;0.57;;;0.52;;
54412;SDS011;41533;51.390;0.074;2024-01-16T12:22:16;0.47;;;0.47;;
54412;SDS011;41533;51.390;0.074;2024-01-16T12:24:49;0.52;;;0.52;;
54412;SDS011;41533;51.390;0.074;2024-01-16T12:27:17;2.05;;;0.50;;
54412;SDS011;41533;51.390;0.074;2024-01-16T12:29:44;4.72;;;0.77;;
54412;SDS011;41533;51.390;0.074;2024-01-16T12:32:12;1.00;;;0.70;;
54412;SDS011;41533;51.390;0.074;2024-01-16T12:34:46;2.92;;;0.90;;
54412;SDS011;41533;51.390;0.074;2024-01-16T12:37:15;2.85;;;0.57;;
54412;SDS011;41533;51.390;0.074;2024-01-16T12:39:42;0.70;;;0.70;;
54412;SDS011;41533;51.390;0.074;2024-01-16T12:42:10;1.38;;;0.85;;
54412;SDS011;41533;51.390;0.074;2024-01-16T12:44:39;2.17;;;1.15;;
54412;SDS011;41533;51.390;0.074;2024-01-16T12:47:06;1.30;;;0.60;;
54412;SDS011;41533;51.390;0.074;2024-01-16T12:49:39;0.40;;;0.40;;
54412;SDS011;41533;51.390;0.074;2024-01-16T12:54:45;3.13;;;0.50;;
54412;SDS011;41533;51.390;0.074;2024-01-16T12:57:21;1.95;;;0.70;;
54412;SDS011;41533;51.390;0.074;2024-01-16T12:59:49;2.40;;;0.75;;
54412;SDS011;41533;51.390;0.074;2024-01-16T13:02:20;0.80;;;0.68;;
54412;SDS011;41533;51.390;0.074;2024-01-16T13:04:55;1.17;;;0.80;;
54412;SDS011;41533;51.390;0.074;2024-01-16T13:07:24;1.20;;;0.88;;
54412;SDS011;41533;51.390;0.074;2024-01-16T13:10:05;2.95;;;0.82;;
54412;SDS011;41533;51.390;0.074;2024-01-16T13:12:32;1.10;;;0.90;;
54412;SDS011;41533;51.390;0.074;2024-01-16T13:15:00;1.30;;;0.70;;
54412;SDS011;41533;51.390;0.074;2024-01-16T13:17:28;1.13;;;1.00;;
54412;SDS011;41533;51.390;0.074;2024-01-16T13:19:55;2.08;;;1.27;;
54412;SDS011;41533;51.390;0.074;2024-01-16T13:22:22;0.95;;;0.70;;
54412;SDS011;41533;51.390;0.074;2024-01-16T13:24:56;2.47;;;1.20;;
54412;SDS011;41533;51.390;0.074;2024-01-16T13:27:31;1.92;;;1.00;;
54412;SDS011;41533;51.390;0.074;2024-01-16T13:29:59;0.63;;;0.63;;
54412;SDS011;41533;51.390;0.074;2024-01-16T13:32:26;1.25;;;0.82;;
54412;SDS011;41533;51.390;0.074;2024-01-16T13:34:54;1.30;;;0.98;;
54412;SDS011;41533;51.390;0.074;2024-01-16T13:37:21;3.10;;;1.20;;
54412;SDS011;41533;51.390;0.074;2024-01-16T13:39:49;1.58;;;1.30;;
54412;SDS011;41533;51.390;0.074;2024-01-16T13:42:16;2.45;;;1.17;;
54412;SDS011;41533;51.390;0.074;2024-01-16T13:44:45;1.08;;;0.93;;
54412;SDS011;41533;51.390;0.074;2024-01-16T13:47:14;4.38;;;0.90;;
54412;SDS011;41533;51.390;0.074;2024-01-16T13:49:43;0.95;;;0.63;;
54412;SDS011;41533;51.390;0.074;2024-01-16T13:52:12;1.23;;;0.90;;
54412;SDS011;41533;51.390;0.074;2024-01-16T13:54:39;2.83;;;0.90;;
54412;SDS011;41533;51.390;0.074;2024-01-16T13:57:06;5.22;;;1.75;;
54412;SDS011;41533;51.390;0.074;2024-01-16T13:59:35;0.95;;;0.70;;
54412;SDS011;41533;51.390;0.074;2024-01-16T14:02:03;3.75;;;1.27;;
54412;SDS011;41533;51.390;0.074;2024-01-16T14:04:35;2.25;;;1.42;;
54412;SDS011;41533;51.390;0.074;2024-01-16T14:07:03;2.60;;;1.00;;
54412;SDS011;41533;51.390;0.074;2024-01-16T14:09:37;1.23;;;0.85;;
54412;SDS011;41533;51.390;0.074;2024-01-16T14:12:05;1.75;;;0.77;;
54412;SDS011;41533;51.390;0.074;2024-01-16T14:14:35;1.27;;;0.90;;
54412;SDS011;41533;51.390;0.074;2024-01-16T14:17:05;2.38;;;1.27;;
54412;SDS011;41533;51.390;0.074;2024-01-16T14:19:36;2.75;;;2.45;;
54412;SDS011;41533;51.390;0.074;2024-01-16T14:22:04;1.17;;;0.85;;
54412;SDS011;41533;51.390;0.074;2024-01-16T14:24:31;1.55;;;0.70;;
54412;SDS011;41533;51.390;0.074;2024-01-16T14:27:02;1.98;;;0.90;;
54412;SDS011;41533;51.390;0.074;2024-01-16T14:29:29;3.45;;;1.42;;
54412;SDS011;41533;51.390;0.074;2024-01-16T14:31:57;1.02;;;0.80;;
54412;SDS011;41533;51.390;0.074;2024-01-16T14:34:26;1.23;;;0.95;;
54412;SDS011;41533;51.390;0.074;2024-01-16T14:36:54;2.30;;;1.10;;
54412;SDS011;41533;51.390;0.074;2024-01-16T14:39:42;1.40;;;0.98;;
54412;SDS011;41533;51.390;0.074;2024-01-16T14:42:10;1.30;;;0.80;;
54412;SDS011;41533;51.390;0.074;2024-01-16T14:44:39;1.75;;;1.10;;
54412;SDS011;41533;51.390;0.074;2024-01-16T14:47:07;4.47;;;1.17;;
54412;SDS011;41533;51.390;0.074;2024-01-16T14:49:35;3.15;;;1.33;;
54412;SDS011;41533;51.390;0.074;2024-01-16T14:52:04;1.17;;;1.00;;
54412;SDS011;41533;51.390;0.074;2024-01-16T14:54:31;4.72;;;1.65;;
54412;SDS011;41533;51.390;0.074;2024-01-16T14:56:59;0.93;;;0.93;;
54412;SDS011;41533;51.390;0.074;2024-01-16T14:59:27;4.03;;;1.63;;
54412;SDS011;41533;51.390;0.074;2024-01-16T15:01:54;0.80;;;0.80;;
54412;SDS011;41533;51.390;0.074;2024-01-16T15:04:42;2.03;;;0.95;;
54412;SDS011;41533;51.390;0.074;2024-01-16T15:07:13;1.92;;;0.70;;
54412;SDS011;41533;51.390;0.074;2024-01-16T15:09:40;1.20;;;0.98;;